Todos
Birdsville Airport (Birdsville, Queensland) BVI Condições meteorológicas
|
Birdsville, Queensland (BVI / YBDV)
Céu Limpo
Vento Ligeiro |
|
12 °C |
BVI Previsão da área de terminais
| Date | Time (AEST) | Flight Rules | Wind Dir. | Speed | Type | Height AGL (ft) | Visibility | Remarks | ||||||
|---|---|---|---|---|---|---|---|---|---|---|---|---|---|---|
Histórico recente de METAR BVI
| Date | Time (AEST) | Flight Rules | Wind Dir. | Speed | Type | Height AGL (ft) | Visibility | Temp (°C) | Temp (°F) | Dew Point (°C) | Dew Point (°F) | Rel. Humid. | Pressure | Density Altitude | Remarks |
|---|---|---|---|---|---|---|---|---|---|---|---|---|---|---|---|
| 10-Mai | 03:00 | VFR | 150° | 7 kt | 10000 meters | 12° | 53° | 7° | 44° | 71% | 1023 mb | -492 ft | |||
| 10-Mai | 02:00 | VFR | 160° | 7 kt | 10000 meters | 13° | 55° | 7° | 44° | 67% | 1023 mb | -372 ft | |||
| 10-Mai | 01:00 | VFR | 170° | 6 kt | 10000 meters | 14° | 57° | 8° | 46° | 67% | 1024 mb | -282 ft | |||
| 10-Mai | 00:00 | VFR | 170° | 7 kt | 10000 meters | 14° | 57° | 7° | 44° | 63% | 1024 mb | -282 ft | |||
| 09-Mai | 23:00 | VFR | 170° | 8 kt | 10000 meters | 15° | 59° | 7° | 44° | 59% | 1024 mb | -162 ft | |||
| 09-Mai | 22:00 | VFR | 170° | 9 kt | 10000 meters | 16° | 60° | 7° | 44° | 55% | 1024 mb | -42 ft | |||
| 09-Mai | 21:00 | VFR | 170° | 10 kt | 10000 meters | 17° | 62° | 6° | 42° | 48% | 1024 mb | 78 ft | |||
| 09-Mai | 20:00 | VFR | 170° | 9 kt | 10000 meters | 18° | 64° | 6° | 42° | 45% | 1024 mb | 198 ft | |||
| 09-Mai | 19:00 | VFR | 180° | 7 kt | 10000 meters | 19° | 66° | 6° | 42° | 43% | 1023 mb | 348 ft | |||
| 09-Mai | 18:00 | VFR | 170° | 10 kt | 10000 meters | 21° | 69° | 7° | 44° | 40% | 1023 mb | 588 ft | |||
| 09-Mai | 17:00 | VFR | 150° | 13 kt | 10000 meters | 23° | 73° | 7° | 44° | 36% | 1022 mb | 857 ft | |||
| 09-Mai | 16:00 | VFR | 130° | 12 kt | 10000 meters | 23° | 73° | 7° | 44° | 36% | 1022 mb | 857 ft | |||
| 09-Mai | 15:00 | VFR | 140° | 12 kt | 10000 meters | 23° | 73° | 7° | 44° | 36% | 1022 mb | 857 ft | |||
| 09-Mai | 14:00 | VFR | 150° | 10 kt | 10000 meters | 22° | 71° | 8° | 46° | 41% | 1023 mb | 708 ft | |||
| 09-Mai | 13:00 | VFR | 130° | 9 kt | 10000 meters | 21° | 69° | 8° | 46° | 43% | 1024 mb | 558 ft | |||
| 09-Mai | 12:00 | VFR | 130° | 11 kt | 10000 meters | 21° | 69° | 8° | 46° | 43% | 1025 mb | 529 ft | |||
| 09-Mai | 11:00 | VFR | 130° | 14 kt | 10000 meters | 19° | 66° | 8° | 46° | 49% | 1026 mb | 259 ft | |||
| 09-Mai | 10:00 | VFR | 130° | 13 kt | 10000 meters | 17° | 62° | 8° | 46° | 55% | 1026 mb | 19 ft | |||
| 09-Mai | 09:00 | VFR | 140° | 12 kt | 10000 meters | 15° | 59° | 7° | 44° | 59% | 1026 mb | -221 ft | |||
| 09-Mai | 08:00 | VFR | 170° | 9 kt | 10000 meters | 10° | 50° | 6° | 42° | 76% | 1026 mb | -821 ft | |||
| 09-Mai | 07:00 | VFR | 180° | 7 kt | 10000 meters | 9° | 48° | 6° | 42° | 81% | 1025 mb | -911 ft | |||
| 09-Mai | 06:00 | VFR | 170° | 7 kt | 10000 meters | 10° | 50° | 5° | 41° | 71% | 1025 mb | -791 ft | |||
| 09-Mai | 05:00 | VFR | 180° | 8 kt | 10000 meters | 10° | 50° | 5° | 41° | 71% | 1024 mb | -762 ft | |||
| 09-Mai | 04:00 | VFR | 170° | 7 kt | 10000 meters | 10° | 50° | 5° | 41° | 71% | 1024 mb | -762 ft |
Entrar
| Seu navegador não suporta. atualize seu navegador |
